Terminal Aerodrome Forecast
Issued by NWS

Home | Current Version | Previous Version | Text Only | Print | Product List | Glossary Off
Versions: 1 2 3 4 5 6 7 8 9 10 11 12 13 14 15 16 17 18 19

000
FTUS43 KMPX 241121
TAFAXN
TAF
KAXN 241121Z 2412/2512 28010KT P6SM SCT120
     FM242000 29005KT P6SM OVC020
     FM242300 04005KT 2SM -SN OVC012
      TEMPO 2502/2506 3/4SM -SN VV006
     FM251000 05006KT 5SM -SN SCT007 OVC012=

USA.gov is the U.S. government's official web portal to all federal, state and local government web resources and services.